RYR392T EGNT-EPKK
Flight info
| Callsign | RYR392T |
|---|---|
| Flight time | N/A |
| Altitude | 39000 |
| Route | GIRLI P18 GASKO Y250 RIMTO UY250 MAMUL L603 LAMSO DCT PETIK P154 SPY DCT KOBUS DCT LASIS T714 MOFKE |
| Aircraft | B38M/M-SDE1FGHILORVWXY/HB1 |
Departure
| Time | 2026-05-07 13:34 |
|---|---|
| Airport | Newcastle International Airport (EGNT) |
Arrival
| Time | N/A |
|---|---|
| Airport | Kraków John Paul II International Airport (EPKK) |
| Time | Latitude | Longitude | Altitude | Speed | Heading |
|---|---|---|---|---|---|
| 2026-05-07 13:24 | 55.03736 | -1.70760 | 270 ft | 1 kts | 184° |
| 2026-05-07 13:25 | 55.03745 | -1.70759 | 270 ft | 4 kts | 184° |
| 2026-05-07 13:25 | 55.03766 | -1.70756 | 270 ft | 3 kts | 184° |
| 2026-05-07 13:26 | 55.03792 | -1.70757 | 270 ft | 4 kts | 166° |
| 2026-05-07 13:26 | 55.03810 | -1.70776 | 270 ft | 4 kts | 102° |
| 2026-05-07 13:26 | 55.03812 | -1.70819 | 270 ft | 3 kts | 94° |
| 2026-05-07 13:26 | 55.03812 | -1.70824 | 270 ft | 1 kts | 94° |
| 2026-05-07 13:29 | 55.03812 | -1.70821 | 270 ft | 1 kts | 94° |
| 2026-05-07 13:29 | 55.03810 | -1.70766 | 270 ft | 8 kts | 94° |
| 2026-05-07 13:29 | 55.03803 | -1.70619 | 270 ft | 16 kts | 94° |
| 2026-05-07 13:30 | 55.03785 | -1.70373 | 270 ft | 24 kts | 101° |
| 2026-05-07 13:30 | 55.03772 | -1.70044 | 264 ft | 30 kts | 89° |
| 2026-05-07 13:30 | 55.03806 | -1.69671 | 260 ft | 33 kts | 75° |
| 2026-05-07 13:30 | 55.03892 | -1.69290 | 256 ft | 35 kts | 65° |
| 2026-05-07 13:31 | 55.03998 | -1.68890 | 253 ft | 37 kts | 65° |
| 2026-05-07 13:31 | 55.04110 | -1.68466 | 251 ft | 39 kts | 65° |
| 2026-05-07 13:31 | 55.04225 | -1.68026 | 250 ft | 37 kts | 64° |
| 2026-05-07 13:31 | 55.04314 | -1.67699 | 247 ft | 26 kts | 65° |
| 2026-05-07 13:32 | 55.04332 | -1.67586 | 245 ft | 0 kts | 87° |
| 2026-05-07 13:32 | 55.04332 | -1.67569 | 245 ft | 4 kts | 89° |
| 2026-05-07 13:32 | 55.04330 | -1.67487 | 244 ft | 10 kts | 94° |
| 2026-05-07 13:32 | 55.04292 | -1.67370 | 243 ft | 11 kts | 162° |
| 2026-05-07 13:33 | 55.04230 | -1.67369 | 244 ft | 1 kts | 208° |
| 2026-05-07 13:33 | 55.04210 | -1.67408 | 244 ft | 8 kts | 243° |
| 2026-05-07 13:33 | 55.04141 | -1.67668 | 248 ft | 57 kts | 245° |
| 2026-05-07 13:34 | 55.03854 | -1.68749 | 253 ft | 136 kts | 246° |
| 2026-05-07 13:34 | 55.02895 | -1.72512 | 1542 ft | 176 kts | 242° |
| 2026-05-07 13:34 | 55.02360 | -1.74406 | 2661 ft | 177 kts | 238° |
| 2026-05-07 13:35 | 55.01492 | -1.75910 | 3567 ft | 178 kts | 213° |
| 2026-05-07 13:35 | 55.00333 | -1.76765 | 4460 ft | 185 kts | 195° |
| 2026-05-07 13:35 | 54.99037 | -1.76984 | 5220 ft | 190 kts | 185° |
| 2026-05-07 13:35 | 54.97776 | -1.77490 | 5483 ft | 186 kts | 206° |
| 2026-05-07 13:36 | 54.96953 | -1.78112 | 5788 ft | 202 kts | 205° |
| 2026-05-07 13:36 | 54.95102 | -1.79436 | 6585 ft | 231 kts | 204° |
| 2026-05-07 13:36 | 54.93544 | -1.80526 | 7228 ft | 250 kts | 204° |
| 2026-05-07 13:36 | 54.92446 | -1.81286 | 7688 ft | 260 kts | 203° |
| 2026-05-07 13:37 | 54.90762 | -1.82443 | 8794 ft | 260 kts | 203° |
| 2026-05-07 13:37 | 54.89056 | -1.83610 | 9794 ft | 266 kts | 203° |
| 2026-05-07 13:37 | 54.87305 | -1.84803 | 10576 ft | 277 kts | 203° |
| 2026-05-07 13:37 | 54.86117 | -1.85611 | 10903 ft | 290 kts | 203° |
| 2026-05-07 13:38 | 54.84822 | -1.86490 | 11192 ft | 304 kts | 203° |
| 2026-05-07 13:38 | 54.82780 | -1.87692 | 11569 ft | 326 kts | 192° |
| 2026-05-07 13:38 | 54.80470 | -1.87596 | 12184 ft | 342 kts | 170° |
| 2026-05-07 13:38 | 54.78220 | -1.86051 | 12957 ft | 351 kts | 157° |
| 2026-05-07 13:39 | 54.75993 | -1.84239 | 13774 ft | 356 kts | 158° |
| 2026-05-07 13:39 | 54.73730 | -1.82416 | 14517 ft | 360 kts | 158° |
| 2026-05-07 13:39 | 54.71356 | -1.81055 | 15252 ft | 360 kts | 174° |
| 2026-05-07 13:39 | 54.68857 | -1.81181 | 16015 ft | 361 kts | 191° |
| 2026-05-07 13:40 | 54.66385 | -1.81907 | 16701 ft | 367 kts | 191° |
| 2026-05-07 13:40 | 54.63840 | -1.82668 | 17439 ft | 371 kts | 191° |
| 2026-05-07 13:40 | 54.61294 | -1.83450 | 18182 ft | 374 kts | 191° |
| 2026-05-07 13:40 | 54.58712 | -1.84255 | 18834 ft | 378 kts | 191° |
| 2026-05-07 13:41 | 54.56105 | -1.85074 | 19433 ft | 382 kts | 191° |
| 2026-05-07 13:41 | 54.53480 | -1.85901 | 20043 ft | 386 kts | 191° |
| 2026-05-07 13:41 | 54.50860 | -1.86725 | 20674 ft | 388 kts | 191° |
| 2026-05-07 13:41 | 54.48190 | -1.87565 | 21264 ft | 391 kts | 191° |
| 2026-05-07 13:42 | 54.45498 | -1.88409 | 21856 ft | 395 kts | 191° |
| 2026-05-07 13:42 | 54.42781 | -1.89261 | 22438 ft | 398 kts | 191° |
| 2026-05-07 13:42 | 54.40044 | -1.90118 | 23052 ft | 401 kts | 191° |
| 2026-05-07 13:42 | 54.37285 | -1.90980 | 23616 ft | 404 kts | 190° |
| 2026-05-07 13:43 | 54.34510 | -1.91847 | 24074 ft | 408 kts | 190° |
| 2026-05-07 13:43 | 54.31700 | -1.92723 | 24556 ft | 411 kts | 190° |
| 2026-05-07 13:43 | 54.28877 | -1.93602 | 25025 ft | 413 kts | 190° |
| 2026-05-07 13:43 | 54.26042 | -1.94461 | 25490 ft | 416 kts | 188° |
| 2026-05-07 13:44 | 54.23175 | -1.94434 | 25915 ft | 420 kts | 171° |
| 2026-05-07 13:44 | 54.20377 | -1.92956 | 26341 ft | 424 kts | 155° |
| 2026-05-07 13:44 | 54.17781 | -1.90486 | 26769 ft | 427 kts | 151° |
| 2026-05-07 13:44 | 54.15203 | -1.87907 | 27194 ft | 430 kts | 150° |
| 2026-05-07 13:45 | 54.12625 | -1.85281 | 27642 ft | 433 kts | 150° |
| 2026-05-07 13:45 | 54.10037 | -1.82618 | 28042 ft | 436 kts | 149° |
| 2026-05-07 13:45 | 54.07431 | -1.79920 | 28464 ft | 438 kts | 149° |
| 2026-05-07 13:45 | 54.04813 | -1.77211 | 28853 ft | 441 kts | 149° |
| 2026-05-07 13:46 | 54.02209 | -1.74517 | 29260 ft | 444 kts | 149° |
| 2026-05-07 13:46 | 53.99559 | -1.71779 | 29620 ft | 447 kts | 149° |
| 2026-05-07 13:46 | 53.96894 | -1.69029 | 30049 ft | 448 kts | 149° |
| 2026-05-07 13:46 | 53.94210 | -1.66264 | 30458 ft | 449 kts | 149° |
| 2026-05-07 13:47 | 53.91573 | -1.63552 | 30915 ft | 447 kts | 149° |
| 2026-05-07 13:47 | 53.88914 | -1.60821 | 31401 ft | 445 kts | 149° |
| 2026-05-07 13:47 | 53.86267 | -1.58107 | 31901 ft | 443 kts | 149° |
| 2026-05-07 13:47 | 53.83631 | -1.55407 | 32393 ft | 442 kts | 148° |
| 2026-05-07 13:48 | 53.81001 | -1.52718 | 32807 ft | 441 kts | 148° |
| 2026-05-07 13:48 | 53.78375 | -1.50038 | 33281 ft | 439 kts | 148° |
| 2026-05-07 13:48 | 53.75754 | -1.47365 | 33763 ft | 438 kts | 148° |
| 2026-05-07 13:48 | 53.73180 | -1.44744 | 34229 ft | 436 kts | 148° |
| 2026-05-07 13:49 | 53.70577 | -1.42099 | 34577 ft | 435 kts | 148° |
| 2026-05-07 13:49 | 53.67975 | -1.39460 | 34871 ft | 436 kts | 148° |
| 2026-05-07 13:49 | 53.65369 | -1.36819 | 35141 ft | 438 kts | 148° |
| 2026-05-07 13:49 | 53.62781 | -1.34200 | 35422 ft | 439 kts | 148° |
| 2026-05-07 13:50 | 53.60093 | -1.31628 | 35692 ft | 440 kts | 156° |
| 2026-05-07 13:50 | 53.57191 | -1.30204 | 36000 ft | 441 kts | 172° |
| 2026-05-07 13:50 | 53.54133 | -1.29682 | 36243 ft | 443 kts | 174° |
| 2026-05-07 13:50 | 53.51056 | -1.29216 | 36485 ft | 444 kts | 174° |
| 2026-05-07 13:51 | 53.47990 | -1.28498 | 36770 ft | 443 kts | 163° |
| 2026-05-07 13:51 | 53.45176 | -1.26443 | 37107 ft | 442 kts | 148° |
| 2026-05-07 13:51 | 53.42796 | -1.23264 | 37309 ft | 444 kts | 134° |
| 2026-05-07 13:51 | 53.40861 | -1.19210 | 37505 ft | 448 kts | 122° |
| 2026-05-07 13:52 | 53.39478 | -1.14526 | 37725 ft | 450 kts | 112° |
| 2026-05-07 13:52 | 53.38441 | -1.09552 | 37897 ft | 453 kts | 109° |
| 2026-05-07 13:52 | 53.37464 | -1.04508 | 38084 ft | 455 kts | 109° |
| 2026-05-07 13:52 | 53.36514 | -0.99441 | 38311 ft | 456 kts | 108° |
| 2026-05-07 13:53 | 53.35579 | -0.94357 | 38532 ft | 458 kts | 108° |
| 2026-05-07 13:53 | 53.34649 | -0.89254 | 38757 ft | 459 kts | 108° |
| 2026-05-07 13:53 | 53.33722 | -0.84156 | 38917 ft | 459 kts | 108° |
| 2026-05-07 13:53 | 53.32798 | -0.79091 | 39043 ft | 460 kts | 108° |
| 2026-05-07 13:54 | 53.31861 | -0.73961 | 39069 ft | 461 kts | 108° |
| 2026-05-07 13:54 | 53.29962 | -0.63746 | 39073 ft | 459 kts | 109° |
| 2026-05-07 13:55 | 53.28038 | -0.53529 | 39076 ft | 459 kts | 109° |
| 2026-05-07 13:55 | 53.26123 | -0.43402 | 39074 ft | 459 kts | 109° |
| 2026-05-07 13:56 | 53.24187 | -0.33228 | 39072 ft | 459 kts | 109° |
| 2026-05-07 13:56 | 53.22243 | -0.23056 | 39072 ft | 460 kts | 109° |
| 2026-05-07 13:57 | 53.20287 | -0.12880 | 39073 ft | 460 kts | 109° |
| 2026-05-07 13:57 | 53.18449 | -0.03370 | 39077 ft | 460 kts | 109° |
| 2026-05-07 13:58 | 53.16812 | 0.05062 | 39055 ft | 459 kts | 109° |
| 2026-05-07 13:58 | 53.15585 | 0.11354 | 39064 ft | 460 kts | 109° |
| 2026-05-07 13:59 | 53.14322 | 0.17818 | 39061 ft | 460 kts | 109° |
| 2026-05-07 13:59 | 53.13269 | 0.23185 | 39069 ft | 459 kts | 109° |
| 2026-05-07 14:00 | 53.12098 | 0.29136 | 39069 ft | 459 kts | 109° |
| 2026-05-07 14:00 | 53.10835 | 0.35536 | 39069 ft | 460 kts | 110° |
| 2026-05-07 14:01 | 53.09592 | 0.41817 | 39076 ft | 460 kts | 110° |
| 2026-05-07 14:01 | 53.08673 | 0.46445 | 39074 ft | 460 kts | 110° |
| 2026-05-07 14:02 | 53.07596 | 0.51852 | 39068 ft | 459 kts | 110° |
| 2026-05-07 14:02 | 53.06570 | 0.56996 | 39071 ft | 460 kts | 110° |
| 2026-05-07 14:03 | 53.05546 | 0.62110 | 39078 ft | 460 kts | 110° |
| 2026-05-07 14:03 | 53.04537 | 0.67142 | 39075 ft | 460 kts | 110° |
| 2026-05-07 14:04 | 53.03554 | 0.72026 | 39072 ft | 460 kts | 110° |
| 2026-05-07 14:04 | 53.02326 | 0.78112 | 39075 ft | 460 kts | 110° |
| 2026-05-07 14:05 | 53.00335 | 0.87944 | 39080 ft | 460 kts | 110° |
| 2026-05-07 14:05 | 52.98288 | 0.98018 | 39080 ft | 460 kts | 109° |
| 2026-05-07 14:06 | 52.96919 | 1.08413 | 39098 ft | 463 kts | 102° |
| 2026-05-07 14:06 | 52.95704 | 1.18847 | 39086 ft | 463 kts | 102° |
| 2026-05-07 14:07 | 52.94481 | 1.29347 | 39087 ft | 463 kts | 102° |
| 2026-05-07 14:07 | 52.93634 | 1.36570 | 39087 ft | 463 kts | 103° |
| 2026-05-07 14:08 | 52.93028 | 1.41721 | 39100 ft | 463 kts | 103° |
| 2026-05-07 14:08 | 52.92465 | 1.46485 | 39099 ft | 463 kts | 103° |
| 2026-05-07 14:09 | 52.91905 | 1.51200 | 39096 ft | 463 kts | 103° |
| 2026-05-07 14:09 | 52.91453 | 1.55011 | 39090 ft | 463 kts | 102° |
| 2026-05-07 14:10 | 52.90923 | 1.59441 | 39098 ft | 463 kts | 102° |
| 2026-05-07 14:10 | 52.90381 | 1.63970 | 39103 ft | 463 kts | 102° |
| 2026-05-07 14:11 | 52.89854 | 1.68351 | 39099 ft | 462 kts | 102° |
| 2026-05-07 14:11 | 52.89345 | 1.72572 | 39100 ft | 462 kts | 102° |
| 2026-05-07 14:12 | 52.88904 | 1.76223 | 39097 ft | 462 kts | 103° |
| 2026-05-07 14:12 | 52.88424 | 1.80181 | 39098 ft | 462 kts | 103° |
| 2026-05-07 14:13 | 52.87933 | 1.84216 | 39105 ft | 462 kts | 103° |
| 2026-05-07 14:13 | 52.87438 | 1.88273 | 39104 ft | 463 kts | 103° |
| 2026-05-07 14:14 | 52.86953 | 1.92232 | 39103 ft | 462 kts | 103° |
| 2026-05-07 14:14 | 52.86468 | 1.96188 | 39102 ft | 462 kts | 103° |
| 2026-05-07 14:15 | 52.85973 | 2.00209 | 39100 ft | 463 kts | 103° |
| 2026-05-07 14:15 | 52.85475 | 2.04246 | 39098 ft | 463 kts | 103° |
| 2026-05-07 14:16 | 52.84975 | 2.08282 | 39099 ft | 463 kts | 103° |
| 2026-05-07 14:16 | 52.84486 | 2.12219 | 39100 ft | 463 kts | 103° |
| 2026-05-07 14:17 | 52.84004 | 2.16088 | 39102 ft | 463 kts | 103° |
| 2026-05-07 14:17 | 52.83517 | 2.19991 | 39102 ft | 463 kts | 103° |
| 2026-05-07 14:18 | 52.83031 | 2.23869 | 39102 ft | 463 kts | 103° |
| 2026-05-07 14:18 | 52.82533 | 2.27830 | 39102 ft | 463 kts | 103° |
| 2026-05-07 14:19 | 52.82045 | 2.31705 | 39103 ft | 463 kts | 103° |
| 2026-05-07 14:19 | 52.81639 | 2.34921 | 39103 ft | 463 kts | 103° |
| 2026-05-07 14:20 | 52.81202 | 2.38382 | 39101 ft | 463 kts | 103° |